Terminal Aerodrome Forecast
Issued by NWS

Home | Current Version | Previous Version | Text Only | Print | Product List | Glossary On
Versions: 1 2 3 4 5 6 7 8 9 10 11 12 13 14 15 16 17
054
FTUS43 KBIS 090525
TAFMOT
TAF
KMOT 090525Z 0906/1006 31005KT P6SM OVC050
     FM091300 02004KT P6SM OVC040
     FM091500 04004KT P6SM OVC025
     FM092300 10006KT 6SM -SN OVC015
     FM100200 12008KT 2SM -SN OVC010=

USA.gov is the U.S. government's official web portal to all federal, state and local government web resources and services.